Time;durP1;ratioP1;P1;durP2;ratioP2;P2;SDS_P1;SDS_P2;PMS_P1;PMS_P2;Temp;Humidity;BMP_temperature;BMP_pressure;BME280_temperature;BME280_humidity;BME280_pressure;Samples;Min_cycle;Max_cycle;Signal;HPM_P1;HPM_P2
2021/03/07 00:00:00;;;;;;;70.90;14.00;;;-2.20;1.00;;;;;;5132677;27;20225;-67
2021/03/07 00:02:27;;;;;;;75.47;15.00;;;-2.20;1.00;;;;;;5133066;27;20209;-66
2021/03/07 00:04:53;;;;;;;78.32;16.38;;;-2.20;1.00;;;;;;5132452;27;20195;-67
2021/03/07 00:07:19;;;;;;;76.20;17.23;;;-2.30;1.00;;;;;;5132639;27;20222;-67
2021/03/07 00:09:46;;;;;;;74.05;16.75;;;-2.30;1.00;;;;;;5132717;27;20211;-67
2021/03/07 00:12:12;;;;;;;74.00;15.95;;;-2.30;1.00;;;;;;5132633;27;20210;-67
2021/03/07 00:14:38;;;;;;;72.50;15.13;;;-2.30;1.00;;;;;;5132625;27;20203;-67
2021/03/07 00:17:05;;;;;;;80.97;16.80;;;-2.30;1.00;;;;;;5132543;27;20736;-67
2021/03/07 00:19:34;;;;;;;70.80;15.07;;;-2.40;1.00;;;;;;5132260;27;20560;-67
2021/03/07 00:22:00;;;;;;;73.55;15.15;;;-2.40;1.00;;;;;;5132467;27;20230;-66
2021/03/07 00:24:27;;;;;;;70.13;15.10;;;-2.40;1.00;;;;;;5132782;27;20207;-67
2021/03/07 00:26:53;;;;;;;70.00;14.88;;;-2.40;1.00;;;;;;5132681;27;20219;-67
2021/03/07 00:29:19;;;;;;;71.43;14.43;;;-2.40;1.00;;;;;;5132480;27;20218;-67
2021/03/07 00:31:46;;;;;;;72.60;13.70;;;-2.40;1.00;;;;;;5132567;27;20198;-67
2021/03/07 00:34:12;;;;;;;70.00;13.45;;;-2.40;1.00;;;;;;5132105;27;20213;-67
2021/03/07 00:36:39;;;;;;;73.13;14.88;;;-2.40;1.00;;;;;;5132167;27;20235;-67
2021/03/07 00:39:07;;;;;;;71.40;13.50;;;-2.40;1.00;;;;;;5132428;27;20207;-67
2021/03/07 00:41:35;;;;;;;77.03;13.02;;;-2.40;1.00;;;;;;5132365;27;20227;-67
2021/03/07 00:44:01;;;;;;;69.15;12.75;;;-2.40;1.00;;;;;;5132523;27;20298;-66
2021/03/07 00:46:28;;;;;;;71.15;13.98;;;-2.40;1.00;;;;;;5132056;27;20233;-67
2021/03/07 00:48:54;;;;;;;73.10;13.13;;;-2.50;1.00;;;;;;5132228;27;20238;-67
2021/03/07 00:51:20;;;;;;;70.28;13.20;;;-2.50;1.00;;;;;;5132527;27;20286;-67
2021/03/07 00:53:48;;;;;;;68.03;13.43;;;-2.50;1.00;;;;;;5132202;27;20693;-67
2021/03/07 00:56:14;;;;;;;68.80;11.13;;;-2.50;1.00;;;;;;5132122;27;20246;-67
2021/03/07 00:58:41;;;;;;;68.68;12.48;;;-2.60;1.00;;;;;;5132082;27;20301;-68
2021/03/07 01:01:07;;;;;;;68.60;13.80;;;-2.60;1.00;;;;;;5131964;27;20219;-67
2021/03/07 01:03:33;;;;;;;72.93;13.30;;;-2.60;1.00;;;;;;5135293;27;20634;-67
2021/03/07 01:06:00;;;;;;;68.28;12.60;;;-2.60;1.00;;;;;;5136442;27;20249;-67
2021/03/07 01:08:26;;;;;;;69.78;12.80;;;-2.70;1.00;;;;;;5136231;27;20203;-67
2021/03/07 01:10:53;;;;;;;69.68;12.40;;;-2.70;1.00;;;;;;5136470;27;20271;-67
2021/03/07 01:13:20;;;;;;;69.47;12.90;;;-2.80;1.00;;;;;;5135935;27;20199;-67
2021/03/07 01:15:46;;;;;;;67.72;11.85;;;-2.80;1.00;;;;;;5135841;27;20213;-67
2021/03/07 01:18:13;;;;;;;71.72;12.60;;;-2.90;1.00;;;;;;5135656;27;20217;-67
2021/03/07 01:20:40;;;;;;;72.65;13.15;;;-2.90;1.00;;;;;;5135967;27;20265;-67
2021/03/07 01:23:07;;;;;;;83.25;20.38;;;-2.90;1.00;;;;;;5135815;27;20634;-67
2021/03/07 01:25:34;;;;;;;86.57;21.77;;;-3.00;1.00;;;;;;5135749;27;20228;-67
2021/03/07 01:28:03;;;;;;;88.53;22.95;;;-3.00;1.00;;;;;;5135681;27;20203;-67
2021/03/07 01:30:31;;;;;;;94.90;24.13;;;-2.90;1.00;;;;;;5135590;27;20282;-67
2021/03/07 01:32:57;;;;;;;79.15;17.50;;;-3.00;1.00;;;;;;5135805;27;20255;-67
2021/03/07 01:35:24;;;;;;;81.88;17.52;;;-3.00;1.00;;;;;;5135646;27;20722;-67
2021/03/07 01:37:51;;;;;;;72.30;14.00;;;-3.00;1.00;;;;;;5135600;27;20269;-67
2021/03/07 01:40:19;;;;;;;69.95;13.68;;;-3.00;1.00;;;;;;5135485;27;20231;-67
2021/03/07 01:42:46;;;;;;;70.22;13.65;;;-3.00;1.00;;;;;;5135186;27;20281;-67
2021/03/07 01:45:18;;;;;;;69.63;14.15;;;-3.00;1.00;;;;;;5135586;27;20207;-67
2021/03/07 01:47:47;;;;;;;66.60;12.38;;;-3.10;1.00;;;;;;5135299;27;20226;-67
2021/03/07 01:50:15;;;;;;;71.63;12.88;;;-3.10;1.00;;;;;;5132313;27;20205;-67
2021/03/07 01:52:42;;;;;;;88.57;21.13;;;-3.10;1.00;;;;;;5127998;27;20652;-67
2021/03/07 01:55:09;;;;;;;83.13;19.67;;;-3.10;1.00;;;;;;5135071;27;20203;-67
2021/03/07 01:57:37;;;;;;;85.32;17.83;;;-3.10;1.00;;;;;;5135270;27;20594;-67
2021/03/07 02:00:08;;;;;;;82.88;17.40;;;-3.10;1.00;;;;;;5114614;28;20290;-67
2021/03/07 02:02:36;;;;;;;77.38;16.17;;;-3.10;1.00;;;;;;5122629;27;20210;-67
2021/03/07 02:05:06;;;;;;;73.25;15.10;;;-3.10;1.00;;;;;;5135308;27;20286;-67
2021/03/07 02:07:32;;;;;;;75.35;15.73;;;-3.10;1.00;;;;;;5134891;27;20656;-67
2021/03/07 02:09:58;;;;;;;70.20;14.18;;;-3.10;1.00;;;;;;5134825;27;20330;-67
2021/03/07 02:12:25;;;;;;;73.25;14.73;;;-3.20;1.00;;;;;;5134928;27;20199;-67
2021/03/07 02:14:53;;;;;;;76.82;14.60;;;-3.20;1.00;;;;;;5134755;27;20207;-67
2021/03/07 02:17:20;;;;;;;70.97;13.55;;;-3.10;1.00;;;;;;5134873;27;20309;-67
2021/03/07 02:19:48;;;;;;;71.85;13.82;;;-3.10;1.00;;;;;;5134799;27;20557;-67
2021/03/07 02:22:22;;;;;;;75.80;14.50;;;-3.20;1.00;;;;;;5134565;27;20227;-67
2021/03/07 02:24:49;;;;;;;75.20;14.27;;;-3.20;1.00;;;;;;5134984;27;20210;-67
2021/03/07 02:27:15;;;;;;;71.22;13.63;;;-3.20;1.00;;;;;;5134442;27;20313;-67
2021/03/07 02:29:42;;;;;;;70.38;13.13;;;-3.30;1.00;;;;;;5134751;27;20297;-67
2021/03/07 02:32:17;;;;;;;71.22;13.75;;;-3.30;1.00;;;;;;5134786;27;20290;-67
2021/03/07 02:34:49;;;;;;;67.22;13.07;;;-3.30;1.00;;;;;;5134343;27;20745;-67
2021/03/07 02:37:17;;;;;;;68.93;12.65;;;-3.40;1.00;;;;;;5134486;27;20227;-67
2021/03/07 02:39:44;;;;;;;70.28;12.63;;;-3.40;1.00;;;;;;5134227;27;20224;-67
2021/03/07 02:42:15;;;;;;;68.15;12.10;;;-3.50;1.00;;;;;;5134266;27;20276;-67
2021/03/07 02:44:46;;;;;;;75.03;13.05;;;-3.60;1.00;;;;;;5134234;27;20708;-67
2021/03/07 02:47:14;;;;;;;71.13;12.93;;;-3.60;1.00;;;;;;5134176;27;20701;-67
2021/03/07 02:49:43;;;;;;;71.32;12.30;;;-3.50;1.00;;;;;;5134747;27;20211;-67
2021/03/07 02:52:10;;;;;;;70.65;13.52;;;-3.50;1.00;;;;;;5133940;27;20758;-67
2021/03/07 02:54:38;;;;;;;70.95;13.45;;;-3.60;1.00;;;;;;5134109;27;20307;-67
2021/03/07 02:57:05;;;;;;;67.28;13.13;;;-3.50;1.00;;;;;;5133790;27;20264;-67
2021/03/07 02:59:36;;;;;;;69.95;11.70;;;-3.50;1.00;;;;;;5133930;27;20207;-67
2021/03/07 03:02:04;;;;;;;70.05;12.30;;;-3.50;1.00;;;;;;5133595;27;20774;-67
2021/03/07 03:04:33;;;;;;;66.88;11.70;;;-3.50;1.00;;;;;;5133808;27;20690;-67
2021/03/07 03:07:01;;;;;;;72.03;12.48;;;-3.60;1.00;;;;;;5133915;27;20223;-67
2021/03/07 03:09:30;;;;;;;68.57;13.15;;;-3.60;1.00;;;;;;5133820;27;20210;-67
2021/03/07 03:11:58;;;;;;;73.72;12.52;;;-3.60;1.00;;;;;;5133545;27;20214;-67
2021/03/07 03:14:26;;;;;;;67.88;11.30;;;-3.60;1.00;;;;;;5133491;27;20203;-67
2021/03/07 03:16:56;;;;;;;70.70;12.60;;;-3.70;1.00;;;;;;5133855;27;20313;-67
2021/03/07 03:19:25;;;;;;;69.40;12.05;;;-3.70;1.00;;;;;;5133557;27;20222;-67
2021/03/07 03:21:52;;;;;;;65.90;11.32;;;-3.70;1.00;;;;;;5133253;27;20230;-67
2021/03/07 03:24:18;;;;;;;71.90;11.82;;;-3.70;1.00;;;;;;5133494;27;20203;-67
2021/03/07 03:26:45;;;;;;;71.60;12.02;;;-3.80;1.00;;;;;;5132966;27;20223;-67
2021/03/07 03:29:11;;;;;;;73.32;12.52;;;-3.80;1.00;;;;;;5133467;27;20211;-67
2021/03/07 03:31:38;;;;;;;67.45;11.20;;;-3.80;1.00;;;;;;5133371;27;20663;-67
2021/03/07 03:34:08;;;;;;;66.80;11.80;;;-3.80;1.00;;;;;;5133347;27;20629;-67
2021/03/07 03:36:36;;;;;;;66.60;11.57;;;-3.90;1.00;;;;;;5133041;27;20231;-67
2021/03/07 03:39:08;;;;;;;66.57;11.05;;;-3.90;1.00;;;;;;5133372;27;20212;-67
2021/03/07 03:41:36;;;;;;;65.30;10.70;;;-3.90;1.00;;;;;;5133028;27;20229;-67
2021/03/07 03:44:08;;;;;;;66.43;10.77;;;-4.00;1.00;;;;;;5132999;27;20569;-66
2021/03/07 03:46:39;;;;;;;68.47;11.27;;;-4.00;1.00;;;;;;5132957;27;20290;-66
2021/03/07 03:49:14;;;;;;;65.13;10.23;;;-4.00;1.00;;;;;;5133158;27;20644;-67
2021/03/07 03:51:43;;;;;;;65.75;10.70;;;-4.10;1.00;;;;;;5131437;27;20266;-67
2021/03/07 03:54:12;;;;;;;67.93;10.90;;;-4.10;1.00;;;;;;5132977;27;20210;-67
2021/03/07 03:56:40;;;;;;;67.00;11.20;;;-4.10;1.00;;;;;;5132477;27;20729;-67
2021/03/07 03:59:09;;;;;;;68.60;9.93;;;-4.10;1.00;;;;;;5132730;27;20203;-67
2021/03/07 04:01:37;;;;;;;64.70;9.88;;;-4.10;1.00;;;;;;5132844;27;20229;-67
2021/03/07 04:04:05;;;;;;;64.50;10.55;;;-4.10;1.00;;;;;;5132667;27;20551;-67
2021/03/07 04:06:32;;;;;;;66.50;10.25;;;-4.10;1.00;;;;;;5132286;27;20718;-67
2021/03/07 04:08:59;;;;;;;68.63;10.95;;;-4.10;1.00;;;;;;5132606;27;20206;-67
2021/03/07 04:11:26;;;;;;;65.47;10.93;;;-4.10;1.00;;;;;;5132843;27;20206;-67
2021/03/07 04:13:53;;;;;;;64.57;10.30;;;-4.10;1.00;;;;;;5132504;27;20293;-67
2021/03/07 04:16:21;;;;;;;65.00;9.93;;;-4.10;1.00;;;;;;5132702;27;20219;-67
2021/03/07 04:18:48;;;;;;;70.47;10.63;;;-4.10;1.00;;;;;;5132533;27;20203;-67
2021/03/07 04:21:16;;;;;;;66.30;10.82;;;-4.10;1.00;;;;;;5132318;27;20587;-67
2021/03/07 04:23:44;;;;;;;68.25;11.27;;;-4.20;1.00;;;;;;5132477;27;20230;-67
2021/03/07 04:26:11;;;;;;;63.90;10.25;;;-4.20;1.00;;;;;;5132572;27;20242;-67
2021/03/07 04:28:38;;;;;;;69.07;11.68;;;-4.20;1.00;;;;;;5132549;27;20242;-67
2021/03/07 04:31:05;;;;;;;65.22;9.85;;;-4.20;1.00;;;;;;5132499;27;20578;-67
2021/03/07 04:33:32;;;;;;;65.40;10.52;;;-4.20;1.00;;;;;;5131994;27;20335;-67
2021/03/07 04:35:59;;;;;;;64.60;10.02;;;-4.20;1.00;;;;;;5132760;27;20238;-67
2021/03/07 04:38:26;;;;;;;65.13;10.63;;;-4.20;1.00;;;;;;5136849;27;20243;-67
2021/03/07 04:40:53;;;;;;;62.40;9.23;;;-4.30;1.00;;;;;;5136696;27;20279;-67
2021/03/07 04:43:21;;;;;;;66.75;10.90;;;-4.30;1.00;;;;;;5136623;27;20700;-67
2021/03/07 04:45:47;;;;;;;65.32;10.02;;;-4.30;1.00;;;;;;5136402;27;20213;-67
2021/03/07 04:48:13;;;;;;;65.50;9.60;;;-4.30;1.00;;;;;;5136453;27;20294;-67
2021/03/07 04:50:40;;;;;;;66.43;10.18;;;-4.30;1.00;;;;;;5136745;27;20206;-67
2021/03/07 04:53:06;;;;;;;66.90;10.32;;;-4.30;1.00;;;;;;5136217;27;20202;-67
2021/03/07 04:55:32;;;;;;;67.82;11.25;;;-4.30;1.00;;;;;;5136416;27;20202;-67
2021/03/07 04:58:00;;;;;;;67.05;10.45;;;-4.30;1.00;;;;;;5136537;27;20276;-67
2021/03/07 05:00:26;;;;;;;68.65;10.52;;;-4.30;1.00;;;;;;5136192;27;20311;-67
2021/03/07 05:02:53;;;;;;;66.25;10.60;;;-4.30;1.00;;;;;;5135960;27;20210;-67
2021/03/07 05:05:19;;;;;;;67.57;9.73;;;-4.40;1.00;;;;;;5136280;27;20710;-67
2021/03/07 05:07:46;;;;;;;68.82;11.75;;;-4.40;1.00;;;;;;5136216;27;20223;-67
2021/03/07 05:10:12;;;;;;;64.10;10.25;;;-4.50;1.00;;;;;;5136106;27;20206;-67
2021/03/07 05:12:39;;;;;;;69.40;10.75;;;-4.50;1.00;;;;;;5135974;27;20202;-67
2021/03/07 05:15:08;;;;;;;66.85;10.90;;;-4.50;1.00;;;;;;5135909;27;20757;-68
2021/03/07 05:17:35;;;;;;;65.88;9.40;;;-4.50;1.00;;;;;;5135808;27;20298;-67
2021/03/07 05:20:01;;;;;;;66.68;11.07;;;-4.50;1.00;;;;;;5136166;27;20334;-67
2021/03/07 05:22:28;;;;;;;67.22;10.77;;;-4.50;1.00;;;;;;5136012;27;20373;-67
2021/03/07 05:24:54;;;;;;;67.90;11.00;;;-4.50;1.00;;;;;;5135798;27;20298;-66
2021/03/07 05:27:21;;;;;;;68.38;10.80;;;-4.50;1.00;;;;;;5135682;27;20223;-66
2021/03/07 05:29:47;;;;;;;66.93;11.07;;;-4.50;1.00;;;;;;5135548;27;20205;-66
2021/03/07 05:32:14;;;;;;;66.35;9.85;;;-4.50;1.00;;;;;;5135875;27;20199;-66
2021/03/07 05:34:41;;;;;;;65.80;10.05;;;-4.50;1.00;;;;;;5136053;27;20398;-67
2021/03/07 05:37:07;;;;;;;70.63;11.23;;;-4.50;1.00;;;;;;5135480;27;20598;-67
2021/03/07 05:39:33;;;;;;;71.82;12.10;;;-4.50;1.00;;;;;;5131299;27;20199;-67
2021/03/07 05:42:00;;;;;;;66.75;10.45;;;-4.50;1.00;;;;;;5134369;27;20226;-67
2021/03/07 05:44:27;;;;;;;68.80;11.38;;;-4.40;1.00;;;;;;5137892;27;20301;-67
2021/03/07 05:46:53;;;;;;;65.43;10.38;;;-4.40;1.00;;;;;;5137373;27;20233;-67
2021/03/07 05:49:20;;;;;;;62.67;9.35;;;-4.40;1.00;;;;;;5137435;27;20203;-67
2021/03/07 05:51:47;;;;;;;68.45;11.02;;;-4.30;1.00;;;;;;5135239;27;20267;-67
2021/03/07 05:54:16;;;;;;;68.55;11.02;;;-4.30;1.00;;;;;;5137172;27;20248;-67
2021/03/07 05:56:43;;;;;;;66.57;10.75;;;-4.30;1.00;;;;;;5134000;27;20226;-67
2021/03/07 05:59:09;;;;;;;69.18;10.93;;;-4.30;1.00;;;;;;5137779;27;20293;-67
2021/03/07 06:01:35;;;;;;;66.40;10.15;;;-4.30;1.00;;;;;;5138228;27;20262;-67
2021/03/07 06:04:03;;;;;;;68.18;10.60;;;-4.30;1.00;;;;;;5138346;27;20203;-67
2021/03/07 06:06:31;;;;;;;65.65;10.73;;;-4.30;1.00;;;;;;5138034;27;20540;-67
2021/03/07 06:09:21;;;;;;;66.57;11.05;;;-4.30;1.00;;;;;;5137876;27;20304;-67
2021/03/07 06:11:51;;;;;;;66.40;11.63;;;-4.20;1.00;;;;;;5137571;27;20215;-67
2021/03/07 06:14:22;;;;;;;66.45;10.73;;;-4.20;1.00;;;;;;5137696;27;20215;-67
2021/03/07 06:17:06;;;;;;;64.47;10.15;;;-4.20;1.00;;;;;;5138589;27;20268;-67
2021/03/07 06:19:54;;;;;;;71.32;11.60;;;-4.20;1.00;;;;;;5138227;27;20234;-67
2021/03/07 06:22:22;;;;;;;63.15;9.30;;;-4.10;1.00;;;;;;5138898;27;20222;-67
2021/03/07 06:24:48;;;;;;;65.35;9.80;;;-4.10;1.00;;;;;;5138537;27;20226;-67
2021/03/07 06:27:17;;;;;;;68.78;10.85;;;-4.00;1.00;;;;;;5138442;27;20318;-67
2021/03/07 06:29:57;;;;;;;65.03;10.38;;;-4.00;1.00;;;;;;5138282;27;20584;-67
2021/03/07 06:32:25;;;;;;;65.00;9.90;;;-4.00;1.00;;;;;;5137763;27;20199;-67
2021/03/07 06:34:52;;;;;;;68.00;10.35;;;-4.00;1.00;;;;;;5137401;27;20207;-67
2021/03/07 06:37:18;;;;;;;66.50;10.60;;;-3.90;1.00;;;;;;5137926;27;20279;-67
2021/03/07 06:39:45;;;;;;;66.50;11.35;;;-3.90;1.00;;;;;;5136954;27;20206;-67
2021/03/07 06:42:13;;;;;;;68.22;10.68;;;-3.90;1.00;;;;;;5136619;27;20314;-67
2021/03/07 06:44:53;;;;;;;68.55;10.27;;;-3.90;1.00;;;;;;5137023;27;20389;-67
2021/03/07 06:47:19;;;;;;;63.58;9.80;;;-3.80;1.00;;;;;;5136442;27;20226;-67
2021/03/07 06:49:46;;;;;;;66.88;11.43;;;-3.80;1.00;;;;;;5135882;27;20202;-67
2021/03/07 06:52:18;;;;;;;67.75;10.15;;;-3.80;1.00;;;;;;5133420;27;20203;-67
2021/03/07 06:55:02;;;;;;;68.93;10.98;;;-3.80;1.00;;;;;;5129923;27;20207;-67
2021/03/07 06:57:29;;;;;;;67.40;11.48;;;-3.70;1.00;;;;;;5136222;27;20227;-67
2021/03/07 06:59:55;;;;;;;65.40;10.55;;;-3.60;1.00;;;;;;5135778;27;20242;-67
2021/03/07 07:02:22;;;;;;;64.50;10.27;;;-3.60;1.00;;;;;;5136489;27;20222;-67
2021/03/07 07:04:48;;;;;;;64.88;9.65;;;-3.50;1.00;;;;;;5136362;27;20251;-67
2021/03/07 07:07:16;;;;;;;66.70;11.52;;;-3.50;1.00;;;;;;5136326;27;20689;-67
2021/03/07 07:09:43;;;;;;;68.43;11.65;;;-3.40;1.00;;;;;;5135852;27;20207;-67
2021/03/07 07:12:20;;;;;;;69.15;12.02;;;-3.30;1.00;;;;;;5136050;27;20207;-67
2021/03/07 07:14:47;;;;;;;66.75;10.98;;;-3.30;1.00;;;;;;5136271;27;20207;-67
2021/03/07 07:17:15;;;;;;;65.80;10.70;;;-3.20;1.00;;;;;;5135785;27;20309;-67
2021/03/07 07:19:43;;;;;;;64.93;11.82;;;-3.10;1.00;;;;;;5136242;27;20294;-67
2021/03/07 07:22:12;;;;;;;69.15;11.50;;;-3.10;1.00;;;;;;5135745;27;20454;-67
2021/03/07 07:24:38;;;;;;;68.85;12.25;;;-3.00;1.00;;;;;;5136048;27;20249;-67
2021/03/07 07:27:05;;;;;;;67.20;11.32;;;-2.90;1.00;;;;;;5135854;27;20714;-67
2021/03/07 07:29:33;;;;;;;66.18;10.82;;;-2.80;1.00;;;;;;5136097;27;20491;-67
2021/03/07 07:32:06;;;;;;;68.28;11.52;;;-2.70;1.00;;;;;;5135945;27;20202;-67
2021/03/07 07:34:37;;;;;;;68.30;11.25;;;-2.50;1.00;;;;;;5135438;27;20210;-67
2021/03/07 07:37:07;;;;;;;67.13;11.45;;;-2.40;1.00;;;;;;5135031;27;20226;-67
2021/03/07 07:39:35;;;;;;;65.65;11.23;;;-2.30;1.00;;;;;;5135493;27;20240;-67
2021/03/07 07:42:17;;;;;;;66.18;11.02;;;-2.20;1.00;;;;;;5134884;27;20342;-67
2021/03/07 07:44:45;;;;;;;68.55;11.20;;;-2.10;1.00;;;;;;5134994;27;20256;-67
2021/03/07 07:47:12;;;;;;;66.40;11.05;;;-2.00;1.00;;;;;;5133743;27;20227;-67
2021/03/07 07:49:40;;;;;;;67.82;12.52;;;-1.90;1.00;;;;;;5134755;27;20656;-67
2021/03/07 07:52:35;;;;;;;65.72;10.60;;;-1.80;1.00;;;;;;5135124;27;20285;-67
2021/03/07 07:55:06;;;;;;;64.53;9.85;;;-1.60;1.00;;;;;;5130669;27;20242;-67
2021/03/07 07:57:53;;;;;;;67.60;10.88;;;-1.50;1.00;;;;;;5129424;27;20309;-67
2021/03/07 08:00:48;;;;;;;66.72;11.25;;;-1.30;1.00;;;;;;5126677;27;20281;-67
2021/03/07 08:03:34;;;;;;;64.78;10.25;;;-1.20;1.00;;;;;;5129336;27;20290;-67
2021/03/07 08:06:02;;;;;;;66.43;11.50;;;-1.00;1.00;;;;;;5136833;27;20305;-67
2021/03/07 08:08:33;;;;;;;65.25;11.05;;;-0.90;1.00;;;;;;5136669;27;20207;-67
2021/03/07 08:11:01;;;;;;;65.82;10.70;;;-0.80;1.00;;;;;;5136570;27;20320;-67
2021/03/07 08:13:48;;;;;;;65.75;10.80;;;-0.60;1.00;;;;;;5137600;27;20286;-67
2021/03/07 08:16:36;;;;;;;64.47;10.23;;;-0.50;1.00;;;;;;5138162;27;20309;-67
2021/03/07 08:19:03;;;;;;;68.15;10.27;;;-0.30;1.00;;;;;;5136624;27;20203;-67
2021/03/07 08:21:29;;;;;;;66.00;10.00;;;-0.20;1.00;;;;;;5137942;27;20275;-67
2021/03/07 08:24:04;;;;;;;64.13;9.50;;;0.00;1.00;;;;;;5138025;27;20203;-67
2021/03/07 08:27:00;;;;;;;65.97;11.10;;;0.20;1.00;;;;;;5137030;27;20223;-67
2021/03/07 08:29:47;;;;;;;66.18;10.35;;;0.30;1.00;;;;;;5138377;27;20199;-67
2021/03/07 08:32:32;;;;;;;64.80;10.23;;;0.50;1.00;;;;;;5138348;27;20667;-67
2021/03/07 08:35:00;;;;;;;67.72;10.60;;;0.70;1.00;;;;;;5138062;27;20231;-67
2021/03/07 08:37:27;;;;;;;64.35;9.32;;;0.90;1.00;;;;;;5138516;27;20309;-67
2021/03/07 08:40:36;;;;;;;66.22;10.80;;;1.10;1.00;;;;;;5136419;27;20207;-67
2021/03/07 08:43:51;;;;;;;64.47;9.20;;;1.20;1.00;;;;;;5118535;28;20315;-67
2021/03/07 08:46:19;;;;;;;65.65;9.15;;;1.40;1.00;;;;;;5118484;28;20721;-67
2021/03/07 08:48:48;;;;;;;61.50;8.43;;;1.60;1.00;;;;;;5116855;28;20199;-67
2021/03/07 08:51:17;;;;;;;63.38;9.75;;;1.80;1.00;;;;;;5117370;28;20207;-67
2021/03/07 08:53:45;;;;;;;67.35;9.80;;;1.90;1.00;;;;;;5116349;28;20199;-67
2021/03/07 08:56:13;;;;;;;63.20;9.35;;;2.10;1.00;;;;;;5129580;27;20313;-67
2021/03/07 08:58:40;;;;;;;62.00;8.35;;;2.30;1.00;;;;;;5132350;27;20206;-67
2021/03/07 09:01:07;;;;;;;64.13;8.98;;;2.40;1.00;;;;;;5132678;27;20333;-67
2021/03/07 09:03:34;;;;;;;63.08;8.98;;;2.50;1.00;;;;;;5132287;27;20241;-67
2021/03/07 09:06:10;;;;;;;64.90;8.65;;;2.70;1.00;;;;;;5132020;27;20282;-67
2021/03/07 09:08:37;;;;;;;62.10;8.60;;;2.80;1.00;;;;;;5132233;27;20221;-67
2021/03/07 09:11:07;;;;;;;63.53;8.73;;;2.80;1.00;;;;;;5132187;27;20245;-67
2021/03/07 09:13:33;;;;;;;62.05;8.27;;;2.90;1.00;;;;;;5132344;27;20203;-67
2021/03/07 09:16:01;;;;;;;62.45;8.88;;;3.10;1.00;;;;;;5132413;27;20219;-67
2021/03/07 09:18:30;;;;;;;62.75;9.00;;;3.30;1.00;;;;;;5132130;27;20209;-67
2021/03/07 09:21:00;;;;;;;63.28;9.00;;;3.50;1.00;;;;;;5132195;27;20311;-67
2021/03/07 09:23:34;;;;;;;63.13;8.85;;;3.70;1.00;;;;;;5133362;27;20506;-67
2021/03/07 09:26:03;;;;;;;62.78;9.63;;;3.90;1.00;;;;;;5136293;27;20279;-67
2021/03/07 09:28:31;;;;;;;63.30;8.85;;;4.10;1.00;;;;;;5139760;27;20270;-67
2021/03/07 09:30:58;;;;;;;66.18;9.27;;;4.30;1.00;;;;;;5136191;27;20214;-67
2021/03/07 09:33:25;;;;;;;61.22;7.78;;;4.60;1.00;;;;;;5135914;27;20234;-68
2021/03/07 09:36:00;;;;;;;61.55;9.30;;;4.70;1.00;;;;;;5136102;27;20231;-67
2021/03/07 09:38:42;;;;;;;64.18;8.30;;;4.90;1.00;;;;;;5138118;27;20201;-67
2021/03/07 09:41:09;;;;;;;63.42;9.23;;;5.10;1.00;;;;;;5139376;27;20214;-68
2021/03/07 09:43:36;;;;;;;63.15;8.60;;;5.40;1.00;;;;;;5137587;27;20675;-68
2021/03/07 09:46:03;;;;;;;63.95;8.32;;;5.70;1.00;;;;;;5135714;27;20227;-67
2021/03/07 09:48:32;;;;;;;62.63;8.40;;;6.00;1.00;;;;;;5136095;27;20739;-68
2021/03/07 09:50:59;;;;;;;63.17;8.38;;;6.30;1.00;;;;;;5138834;27;20623;-68
2021/03/07 09:53:26;;;;;;;63.28;8.98;;;6.60;1.00;;;;;;5138477;27;20288;-67
2021/03/07 09:55:54;;;;;;;64.75;9.20;;;6.90;1.00;;;;;;5138583;27;20314;-68
2021/03/07 09:58:20;;;;;;;61.75;8.93;;;7.20;1.00;;;;;;5139850;27;20208;-67
2021/03/07 10:00:49;;;;;;;64.32;8.73;;;7.50;1.00;;;;;;5135008;27;20299;-67
2021/03/07 10:03:20;;;;;;;64.05;10.07;;;7.90;1.00;;;;;;5136446;27;20248;-68
2021/03/07 10:06:06;;;;;;;64.07;9.93;;;8.50;1.00;;;;;;5138696;27;20207;-68
2021/03/07 10:08:34;;;;;;;63.80;9.87;;;10.00;1.00;;;;;;5138588;27;20515;-66
2021/03/07 10:11:15;;;;;;;63.73;10.10;;;11.70;1.00;;;;;;5135143;27;20445;-68
2021/03/07 10:13:42;;;;;;;63.17;9.97;;;13.10;1.00;;;;;;5135104;27;20440;-68
2021/03/07 10:16:10;;;;;;;61.70;8.97;;;14.20;1.00;;;;;;5134755;27;20984;-68
2021/03/07 10:18:36;;;;;;;65.57;9.87;;;15.40;1.00;;;;;;5135017;27;20678;-68
2021/03/07 10:21:04;;;;;;;63.87;10.17;;;16.40;1.00;;;;;;5134847;27;20479;-68
2021/03/07 10:23:32;;;;;;;62.77;9.87;;;17.30;1.00;;;;;;5134646;27;20455;-66
2021/03/07 10:25:59;;;;;;;60.97;9.37;;;18.10;1.00;;;;;;5134772;27;20570;-66
2021/03/07 10:28:28;;;;;;;62.80;9.40;;;19.00;1.00;;;;;;5134840;27;20531;-67
2021/03/07 10:30:56;;;;;;;62.87;9.60;;;19.90;1.00;;;;;;5134933;27;20528;-67
2021/03/07 10:33:26;;;;;;;67.90;15.53;;;20.50;1.00;;;;;;5134457;27;20467;-68
2021/03/07 10:35:59;;;;;;;59.13;6.60;;;20.90;1.00;;;;;;5134137;27;20873;-68
2021/03/07 10:38:26;;;;;;;65.03;9.77;;;21.30;1.00;;;;;;5131034;27;20458;-69
2021/03/07 10:40:53;;;;;;;65.20;11.73;;;22.00;1.00;;;;;;5130238;27;20542;-68
2021/03/07 10:43:19;;;;;;;65.67;11.67;;;21.70;1.00;;;;;;5127428;27;20448;-69
2021/03/07 10:45:47;;;;;;;64.40;12.23;;;21.10;1.00;;;;;;5130180;27;20532;-69
2021/03/07 10:48:15;;;;;;;64.83;13.10;;;20.40;1.00;;;;;;5126664;27;20581;-68
2021/03/07 10:50:44;;;;;;;64.30;12.63;;;19.90;1.00;;;;;;5129242;27;20461;-68
2021/03/07 10:53:10;;;;;;;66.37;13.23;;;19.50;1.00;;;;;;5133928;27;20440;-68
2021/03/07 10:55:37;;;;;;;64.93;12.33;;;19.40;1.00;;;;;;5134057;27;20440;-68
2021/03/07 10:58:04;;;;;;;63.80;11.40;;;19.80;1.00;;;;;;5125753;27;20443;-68
2021/03/07 11:00:30;;;;;;;63.57;11.37;;;19.80;1.00;;;;;;5134006;27;20437;-69
2021/03/07 11:02:58;;;;;;;62.63;10.60;;;20.00;1.00;;;;;;5133734;27;20512;-68
2021/03/07 11:05:24;;;;;;;62.73;10.30;;;19.90;1.00;;;;;;5133694;27;20996;-68
2021/03/07 11:07:51;;;;;;;63.60;11.23;;;19.90;1.00;;;;;;5133846;27;20481;-68
2021/03/07 11:10:19;;;;;;;62.50;10.93;;;20.20;1.00;;;;;;5134059;27;20450;-68
2021/03/07 11:12:45;;;;;;;67.53;11.90;;;21.10;1.00;;;;;;5133712;27;20522;-68
2021/03/07 11:15:13;;;;;;;64.50;12.23;;;21.90;1.00;;;;;;5133686;27;20485;-68
2021/03/07 11:17:40;;;;;;;63.40;11.00;;;22.50;1.00;;;;;;5133552;27;21009;-68
2021/03/07 11:20:09;;;;;;;64.60;13.33;;;22.80;1.00;;;;;;5133785;27;20455;-68
2021/03/07 11:22:36;;;;;;;62.90;11.80;;;23.10;1.00;;;;;;5129376;27;20482;-69
2021/03/07 11:25:03;;;;;;;71.97;19.77;;;23.20;1.00;;;;;;5133421;27;20862;-68
2021/03/07 11:27:29;;;;;;;65.50;13.23;;;23.50;1.00;;;;;;5133418;27;20473;-68
2021/03/07 11:29:56;;;;;;;64.73;12.63;;;23.90;1.00;;;;;;5133390;27;20531;-68
2021/03/07 11:32:22;;;;;;;62.50;11.33;;;24.50;1.00;;;;;;5132966;27;20526;-68
2021/03/07 11:34:48;;;;;;;65.90;11.23;;;25.50;1.00;;;;;;5133303;27;20520;-69
2021/03/07 11:37:16;;;;;;;64.63;12.73;;;26.30;1.00;;;;;;5133401;27;20461;-69
2021/03/07 11:39:42;;;;;;;62.80;12.00;;;27.10;1.00;;;;;;5133344;27;20536;-69
2021/03/07 11:42:09;;;;;;;61.60;10.13;;;27.50;1.00;;;;;;5133474;27;20489;-69
2021/03/07 11:44:35;;;;;;;65.40;12.37;;;27.10;1.00;;;;;;5133051;27;20518;-69
2021/03/07 11:47:01;;;;;;;62.83;10.90;;;27.00;1.00;;;;;;5132295;27;20470;-69
2021/03/07 11:49:28;;;;;;;62.67;11.30;;;27.20;1.00;;;;;;5133069;27;20483;-69
2021/03/07 11:51:54;;;;;;;63.10;12.30;;;27.60;1.00;;;;;;5132856;27;20444;-69
2021/03/07 11:54:21;;;;;;;62.40;11.17;;;27.60;1.00;;;;;;5133117;27;20496;-66
2021/03/07 11:56:48;;;;;;;62.00;11.30;;;27.00;1.00;;;;;;5133127;27;20981;-66
2021/03/07 11:59:14;;;;;;;63.80;12.00;;;26.30;1.00;;;;;;5132840;27;20448;-66
2021/03/07 12:01:40;;;;;;;63.07;11.80;;;25.80;1.00;;;;;;5133122;27;20530;-67
2021/03/07 12:04:07;;;;;;;64.87;11.63;;;25.70;1.00;;;;;;5132670;27;20454;-67
2021/03/07 12:06:33;;;;;;;63.93;10.97;;;26.20;1.00;;;;;;5132651;27;20971;-67
2021/03/07 12:08:59;;;;;;;61.90;10.43;;;26.40;1.00;;;;;;5132855;27;20455;-67
2021/03/07 12:11:26;;;;;;;60.80;10.70;;;26.90;1.00;;;;;;5132846;27;20532;-67
2021/03/07 12:13:53;;;;;;;62.00;10.50;;;27.40;1.00;;;;;;5132654;27;20450;-68
2021/03/07 12:16:19;;;;;;;61.27;10.47;;;28.00;1.00;;;;;;5132548;27;20466;-68
2021/03/07 12:18:45;;;;;;;61.60;10.67;;;28.40;1.00;;;;;;5132731;27;20535;-68
2021/03/07 12:21:12;;;;;;;64.37;11.80;;;28.40;1.00;;;;;;5128873;27;20494;-68
2021/03/07 12:23:38;;;;;;;60.90;9.70;;;28.30;1.00;;;;;;5132416;27;20441;-68
2021/03/07 12:26:04;;;;;;;62.07;10.77;;;28.50;1.00;;;;;;5132798;27;20527;-68
2021/03/07 12:28:32;;;;;;;62.20;11.40;;;28.60;1.00;;;;;;5132289;27;20447;-68
2021/03/07 12:30:59;;;;;;;63.33;11.47;;;28.80;1.00;;;;;;5132788;27;20441;-68
2021/03/07 12:33:26;;;;;;;62.33;9.87;;;29.30;1.00;;;;;;5132337;27;20876;-68
2021/03/07 12:35:53;;;;;;;61.27;10.67;;;29.60;1.00;;;;;;5132226;27;20476;-68
2021/03/07 12:38:19;;;;;;;64.30;11.63;;;29.80;1.00;;;;;;5132471;27;20451;-68
2021/03/07 12:40:46;;;;;;;61.83;11.10;;;29.80;1.00;;;;;;5132496;27;20452;-68
2021/03/07 12:43:12;;;;;;;61.80;11.03;;;29.60;1.00;;;;;;5131792;27;21003;-68
2021/03/07 12:45:39;;;;;;;62.40;10.70;;;29.30;1.00;;;;;;5132567;27;20962;-69
2021/03/07 12:48:07;;;;;;;61.27;10.80;;;29.20;1.00;;;;;;5132460;27;20878;-69